Time;durP1;ratioP1;P1;durP2;ratioP2;P2;SDS_P1;SDS_P2;PMS_P1;PMS_P2;Temp;Humidity;BMP_temperature;BMP_pressure;BME280_temperature;BME280_humidity;BME280_pressure;Samples;Min_cycle;Max_cycle;Signal;HPM_P1;HPM_P2
2022/03/22 00:01:04;;;;;;;45.33;32.17;;;12.80;73.10;;;;;;5070002;28;20411;-71
2022/03/22 00:03:30;;;;;;;46.87;32.30;;;12.80;73.10;;;;;;5067773;28;20502;-71
2022/03/22 00:05:56;;;;;;;46.75;31.92;;;12.80;73.30;;;;;;5067970;28;20545;-70
2022/03/22 00:08:22;;;;;;;42.85;31.10;;;12.70;73.50;;;;;;5066105;28;20475;-69
2022/03/22 00:10:47;;;;;;;47.45;32.95;;;12.70;73.90;;;;;;5070251;28;20461;-69
2022/03/22 00:13:14;;;;;;;52.28;32.92;;;12.70;74.20;;;;;;5067302;28;20407;-69
2022/03/22 00:15:40;;;;;;;48.38;32.47;;;12.70;74.60;;;;;;5066450;28;20464;-70
2022/03/22 00:18:05;;;;;;;48.20;32.13;;;12.60;74.90;;;;;;5050086;28;20419;-71
2022/03/22 00:20:32;;;;;;;57.13;35.03;;;12.70;74.90;;;;;;5066584;28;20409;-69
2022/03/22 00:22:59;;;;;;;53.13;35.23;;;12.60;75.00;;;;;;5067508;28;20434;-69
2022/03/22 00:25:25;;;;;;;54.17;34.70;;;12.60;75.00;;;;;;5066785;28;20512;-69
2022/03/22 00:27:55;;;;;;;47.42;32.38;;;12.60;75.10;;;;;;5066177;28;20423;-69
2022/03/22 00:30:32;;;;;;;52.72;34.55;;;12.50;75.40;;;;;;5066856;28;20485;-66
2022/03/22 00:33:00;;;;;;;56.60;36.05;;;12.50;76.10;;;;;;5064863;28;20859;-68
2022/03/22 00:35:28;;;;;;;53.70;36.50;;;12.50;76.00;;;;;;5065422;28;20419;-68
2022/03/22 00:37:57;;;;;;;52.25;34.60;;;12.50;76.00;;;;;;5065723;28;20489;-69
2022/03/22 00:40:24;;;;;;;53.35;34.80;;;12.40;76.30;;;;;;5068556;28;20403;-71
2022/03/22 00:42:53;;;;;;;51.65;35.03;;;12.40;76.30;;;;;;5066789;28;20406;-68
2022/03/22 00:45:32;;;;;;;53.23;35.37;;;12.40;76.80;;;;;;5066469;28;20760;-68
2022/03/22 00:47:58;;;;;;;55.78;35.80;;;12.40;76.50;;;;;;5067310;28;20468;-69
2022/03/22 00:50:27;;;;;;;53.65;35.47;;;12.30;76.60;;;;;;5068872;28;20744;-69
2022/03/22 00:52:53;;;;;;;56.07;35.17;;;12.30;77.10;;;;;;5065958;28;20490;-68
2022/03/22 00:55:21;;;;;;;55.78;35.55;;;12.30;77.20;;;;;;5066823;28;20428;-70
2022/03/22 00:57:47;;;;;;;54.35;36.30;;;12.30;77.10;;;;;;5068867;28;20403;-67
2022/03/22 01:00:14;;;;;;;51.33;35.08;;;12.20;77.30;;;;;;5065862;28;20475;-70
2022/03/22 01:02:42;;;;;;;56.65;37.50;;;12.20;77.30;;;;;;5067727;28;20411;-68
2022/03/22 01:05:13;;;;;;;57.75;37.63;;;12.20;77.70;;;;;;5067792;28;20419;-69
2022/03/22 01:07:41;;;;;;;59.22;38.55;;;12.20;78.00;;;;;;5066870;28;20424;-69
2022/03/22 01:10:09;;;;;;;57.80;38.03;;;12.10;78.20;;;;;;5066861;28;20422;-67
2022/03/22 01:12:40;;;;;;;60.15;38.28;;;12.10;78.50;;;;;;5069223;28;20465;-68
2022/03/22 01:15:10;;;;;;;50.80;35.08;;;12.10;78.60;;;;;;5064455;28;20473;-69
2022/03/22 01:17:36;;;;;;;50.13;34.63;;;12.00;78.40;;;;;;5066394;28;20775;-68
2022/03/22 01:20:05;;;;;;;54.22;35.80;;;12.00;78.50;;;;;;5064999;28;20408;-69
2022/03/22 01:22:31;;;;;;;52.40;34.58;;;12.00;78.90;;;;;;5066466;28;20428;-68
2022/03/22 01:24:57;;;;;;;54.50;34.63;;;12.00;79.40;;;;;;5064380;28;20465;-69
2022/03/22 01:27:22;;;;;;;53.60;35.40;;;12.00;79.80;;;;;;5067262;28;20399;-68
2022/03/22 01:29:51;;;;;;;52.53;35.58;;;11.90;81.10;;;;;;5063008;28;20991;-70
2022/03/22 01:32:17;;;;;;;55.15;35.92;;;11.90;80.40;;;;;;5064565;28;20461;-69
2022/03/22 01:34:43;;;;;;;54.20;35.15;;;11.90;80.60;;;;;;5068696;28;20477;-70
2022/03/22 01:37:09;;;;;;;51.90;36.17;;;11.90;80.70;;;;;;5065705;28;20911;-71
2022/03/22 01:39:35;;;;;;;53.03;35.20;;;11.90;80.80;;;;;;5065396;28;20419;-71
2022/03/22 01:42:01;;;;;;;51.72;35.17;;;11.80;80.80;;;;;;5062927;28;20408;-71
2022/03/22 01:44:28;;;;;;;52.28;35.92;;;11.80;80.80;;;;;;5067110;28;20919;-69
2022/03/22 01:46:58;;;;;;;52.40;36.15;;;11.80;80.80;;;;;;5066096;28;20795;-72
2022/03/22 01:49:24;;;;;;;60.80;36.57;;;11.80;81.10;;;;;;5066212;28;20411;-69
2022/03/22 01:51:51;;;;;;;55.85;36.92;;;11.80;81.40;;;;;;5062129;28;20760;-70
2022/03/22 01:54:18;;;;;;;56.92;36.60;;;11.80;81.80;;;;;;5068352;28;20419;-69
2022/03/22 01:56:43;;;;;;;58.60;37.13;;;11.80;82.10;;;;;;5064821;28;20895;-69
2022/03/22 01:59:09;;;;;;;60.37;37.27;;;11.70;82.10;;;;;;5066292;28;20415;-70
2022/03/22 02:07:06;;;;;;;57.03;37.45;;;11.70;82.80;;;;;;5079066;28;20469;-69
2022/03/22 02:09:33;;;;;;;56.40;37.42;;;11.70;83.10;;;;;;5065021;28;20461;-71
2022/03/22 02:11:59;;;;;;;58.00;37.60;;;11.70;83.20;;;;;;5060517;28;20433;-70
2022/03/22 02:14:25;;;;;;;53.30;37.27;;;11.70;83.40;;;;;;5065443;28;20473;-70
2022/03/22 02:16:51;;;;;;;57.42;37.70;;;11.60;83.50;;;;;;5065792;28;20428;-70
2022/03/22 02:19:17;;;;;;;59.30;37.97;;;11.60;83.80;;;;;;5066536;28;20399;-68
2022/03/22 02:21:44;;;;;;;60.72;39.00;;;11.60;83.70;;;;;;5049341;28;20444;-69
2022/03/22 02:24:10;;;;;;;55.75;37.85;;;11.50;83.70;;;;;;5085717;28;20522;-69
2022/03/22 02:26:39;;;;;;;60.08;39.08;;;11.50;84.00;;;;;;5085706;28;20426;-70
2022/03/22 02:29:05;;;;;;;63.57;39.00;;;11.50;84.40;;;;;;5082390;28;20421;-70
2022/03/22 02:31:32;;;;;;;58.33;38.67;;;11.50;84.30;;;;;;5085176;28;20397;-71
2022/03/22 02:33:58;;;;;;;58.10;38.17;;;11.50;84.50;;;;;;5084093;28;20437;-71
2022/03/22 02:36:24;;;;;;;60.20;38.90;;;11.40;84.70;;;;;;5064565;28;20822;-70
2022/03/22 02:38:51;;;;;;;60.33;38.85;;;11.40;84.80;;;;;;5068907;28;20984;-70
2022/03/22 02:41:20;;;;;;;61.08;38.75;;;11.40;84.60;;;;;;5068646;28;21219;-70
2022/03/22 02:43:46;;;;;;;61.45;39.08;;;11.40;84.80;;;;;;5084977;28;20414;-72
2022/03/22 02:46:13;;;;;;;58.63;38.70;;;11.40;84.80;;;;;;5085561;28;20417;-71
2022/03/22 02:48:38;;;;;;;61.78;40.63;;;11.30;84.90;;;;;;5079716;28;20522;-71
2022/03/22 02:51:04;;;;;;;62.47;41.07;;;11.40;85.10;;;;;;5088309;28;20577;-72
2022/03/22 02:53:30;;;;;;;61.35;39.97;;;11.30;85.20;;;;;;5069028;28;20431;-71
2022/03/22 02:55:55;;;;;;;62.25;39.83;;;11.30;85.30;;;;;;5068967;28;20390;-72
2022/03/22 02:58:21;;;;;;;60.47;39.57;;;11.30;85.60;;;;;;5052178;28;20456;-68
2022/03/22 03:00:47;;;;;;;63.13;40.77;;;11.20;85.60;;;;;;5069634;28;20405;-71
2022/03/22 03:03:12;;;;;;;60.45;40.50;;;11.20;85.80;;;;;;5088241;28;20413;-69
2022/03/22 03:05:38;;;;;;;59.87;39.00;;;11.20;85.90;;;;;;5073761;28;20386;-72
2022/03/22 03:08:04;;;;;;;59.60;39.28;;;11.20;85.90;;;;;;5070145;28;20490;-71
2022/03/22 03:10:30;;;;;;;63.10;39.27;;;11.20;85.90;;;;;;5089140;28;20755;-71
2022/03/22 03:13:01;;;;;;;60.20;39.45;;;11.10;85.90;;;;;;5072615;28;20405;-69
2022/03/22 03:15:27;;;;;;;61.57;40.07;;;11.10;86.30;;;;;;5091702;28;20417;-67
2022/03/22 03:17:52;;;;;;;61.50;39.55;;;11.10;86.70;;;;;;5085835;28;20893;-71
2022/03/22 03:20:18;;;;;;;61.60;39.33;;;11.10;87.30;;;;;;5071307;28;20417;-70
2022/03/22 03:22:44;;;;;;;63.38;40.10;;;11.10;87.30;;;;;;5089241;28;20518;-68
2022/03/22 03:25:09;;;;;;;66.63;41.80;;;11.10;87.40;;;;;;5085472;28;20413;-70
2022/03/22 03:27:36;;;;;;;63.15;40.65;;;11.10;87.60;;;;;;5071850;28;20423;-66
2022/03/22 03:30:04;;;;;;;59.42;40.30;;;11.00;87.90;;;;;;5091239;28;20402;-71
2022/03/22 03:32:31;;;;;;;61.08;40.63;;;11.00;88.50;;;;;;5069809;28;20411;-70
2022/03/22 03:34:57;;;;;;;71.15;43.92;;;11.00;88.70;;;;;;5090979;28;20421;-70
2022/03/22 03:37:24;;;;;;;73.90;44.67;;;11.00;89.00;;;;;;5088456;28;20984;-70
2022/03/22 03:39:52;;;;;;;68.65;43.78;;;11.00;89.30;;;;;;5091264;28;20398;-68
2022/03/22 03:42:19;;;;;;;67.97;42.58;;;11.00;89.50;;;;;;5071573;28;21240;-68
2022/03/22 03:47:28;;;;;;;67.32;41.95;;;11.00;89.40;;;;;;5088130;28;20774;-67
2022/03/22 03:49:59;;;;;;;62.80;41.03;;;10.90;89.70;;;;;;5072833;28;20405;-69
2022/03/22 03:52:30;;;;;;;68.82;43.25;;;10.90;89.70;;;;;;5088694;28;20428;-68
2022/03/22 03:54:57;;;;;;;69.65;42.10;;;10.90;89.80;;;;;;5070532;28;20410;-69
2022/03/22 03:57:24;;;;;;;69.72;42.63;;;10.90;90.00;;;;;;5071483;28;20501;-72
2022/03/22 03:59:51;;;;;;;69.03;41.78;;;10.90;89.80;;;;;;5070670;28;20417;-73
2022/03/22 04:02:17;;;;;;;68.47;41.95;;;10.80;89.90;;;;;;5049989;28;20755;-67
2022/03/22 04:04:44;;;;;;;67.13;42.03;;;10.80;90.00;;;;;;5071081;28;20412;-67
2022/03/22 04:07:11;;;;;;;64.40;42.42;;;10.80;90.20;;;;;;5069735;28;20411;-69
2022/03/22 04:09:39;;;;;;;64.43;42.03;;;10.80;90.30;;;;;;5090657;28;20394;-68
2022/03/22 04:12:05;;;;;;;67.40;42.85;;;10.80;90.40;;;;;;5088676;28;20491;-68
2022/03/22 04:14:31;;;;;;;67.20;43.30;;;10.80;90.50;;;;;;5069441;28;20464;-68
2022/03/22 04:16:57;;;;;;;65.57;42.33;;;10.70;90.70;;;;;;5069290;28;20422;-68
2022/03/22 04:19:24;;;;;;;71.15;42.70;;;10.70;90.60;;;;;;5072391;28;20828;-67
2022/03/22 04:21:49;;;;;;;71.30;45.13;;;10.70;90.80;;;;;;5069891;28;20440;-65
2022/03/22 04:24:15;;;;;;;69.43;44.60;;;10.70;90.90;;;;;;5087676;28;20573;-67
2022/03/22 04:26:43;;;;;;;72.88;44.78;;;10.70;91.10;;;;;;5089726;28;20406;-68
2022/03/22 04:34:42;;;;;;;71.10;43.10;;;10.60;91.60;;;;;;5086804;28;20811;-71
2022/03/22 04:37:12;;;;;;;72.40;43.85;;;10.60;91.70;;;;;;5067556;28;20479;-70
2022/03/22 04:39:40;;;;;;;65.68;42.58;;;10.60;91.20;;;;;;5085940;28;20409;-68
2022/03/22 04:42:06;;;;;;;71.83;44.57;;;10.50;91.20;;;;;;5084670;28;20431;-69
2022/03/22 04:44:33;;;;;;;71.85;44.58;;;10.50;91.40;;;;;;5087455;28;20406;-69
2022/03/22 04:46:59;;;;;;;68.60;41.20;;;10.50;91.60;;;;;;5055196;28;20693;-68
2022/03/22 04:49:26;;;;;;;66.78;38.72;;;10.10;91.80;;;;;;5089496;28;20671;-70
2022/03/22 04:57:23;;;;;;;62.42;37.95;;;9.40;92.80;;;;;;5088243;28;20783;-71
2022/03/22 04:59:49;;;;;;;71.95;44.13;;;9.20;92.90;;;;;;5068544;28;20450;-69
2022/03/22 05:02:15;;;;;;;70.20;42.90;;;9.60;93.20;;;;;;5053240;28;20506;-70
2022/03/22 05:04:43;;;;;;;73.18;42.92;;;9.80;92.80;;;;;;5070649;28;21055;-72
2022/03/22 05:07:09;;;;;;;64.70;42.13;;;10.00;92.50;;;;;;5069692;28;20487;-70
2022/03/22 05:09:34;;;;;;;70.55;43.38;;;10.10;92.40;;;;;;5087939;28;20503;-69
2022/03/22 05:12:01;;;;;;;70.47;39.65;;;10.10;92.20;;;;;;5087983;28;20398;-70
2022/03/22 05:14:27;;;;;;;71.97;39.70;;;9.70;92.50;;;;;;5085508;28;20254;-69
2022/03/22 05:16:56;;;;;;;70.43;39.65;;;9.40;92.90;;;;;;5088024;28;21193;-69
2022/03/22 05:19:23;;;;;;;65.70;37.72;;;9.30;93.10;;;;;;5090161;28;20182;-70
2022/03/22 05:21:48;;;;;;;75.75;39.00;;;9.10;93.30;;;;;;5064421;28;20563;-68
2022/03/22 05:24:14;;;;;;;68.90;37.83;;;9.00;93.30;;;;;;5086667;28;20209;-70
2022/03/22 05:26:40;;;;;;;68.28;38.33;;;8.90;93.40;;;;;;5083440;28;20307;-69
2022/03/22 05:29:06;;;;;;;70.50;39.63;;;8.80;93.50;;;;;;5089372;28;20193;-69
2022/03/22 05:31:32;;;;;;;75.72;39.75;;;8.80;93.60;;;;;;5086912;28;20190;-70
2022/03/22 05:33:59;;;;;;;69.38;39.42;;;8.70;93.70;;;;;;5086021;28;20224;-69
2022/03/22 05:36:24;;;;;;;74.32;40.22;;;8.70;93.80;;;;;;5087301;28;20201;-68
2022/03/22 05:38:50;;;;;;;72.78;39.47;;;8.60;93.80;;;;;;5071788;28;20182;-65
2022/03/22 05:41:16;;;;;;;69.90;39.90;;;8.60;93.90;;;;;;5085683;28;20642;-70
2022/03/22 05:43:42;;;;;;;70.38;40.25;;;8.50;94.00;;;;;;5088525;28;20174;-70
2022/03/22 05:46:09;;;;;;;78.65;39.83;;;8.50;94.10;;;;;;5069690;28;20201;-70
2022/03/22 05:48:38;;;;;;;72.05;39.97;;;8.50;94.10;;;;;;5085550;28;20194;-72
2022/03/22 05:51:04;;;;;;;74.60;39.20;;;8.50;94.20;;;;;;5062860;28;20181;-67
2022/03/22 05:53:30;;;;;;;78.50;39.85;;;8.40;94.30;;;;;;5068064;28;20190;-71
2022/03/22 05:55:56;;;;;;;77.80;40.30;;;8.40;94.30;;;;;;5089034;28;20250;-70
2022/03/22 05:58:22;;;;;;;93.13;41.85;;;8.40;94.40;;;;;;5066561;28;20646;-69
2022/03/22 06:00:47;;;;;;;82.47;43.85;;;8.40;94.50;;;;;;5083933;28;20276;-70
2022/03/22 06:03:14;;;;;;;85.68;44.95;;;8.40;94.60;;;;;;5069749;28;20658;-70
2022/03/22 06:05:39;;;;;;;79.85;42.45;;;8.40;94.70;;;;;;5087739;28;20189;-71
2022/03/22 06:08:05;;;;;;;78.70;41.92;;;8.40;94.80;;;;;;5083734;28;20228;-68
2022/03/22 06:10:31;;;;;;;75.20;42.83;;;8.40;94.80;;;;;;5087708;28;20209;-70
2022/03/22 06:12:57;;;;;;;76.80;42.22;;;8.40;94.90;;;;;;5085139;28;20215;-70
2022/03/22 06:15:27;;;;;;;82.97;42.40;;;8.40;95.00;;;;;;5069954;28;20217;-70
2022/03/22 06:18:00;;;;;;;78.35;41.85;;;8.40;95.10;;;;;;5083641;28;20189;-68
2022/03/22 06:20:31;;;;;;;84.00;43.45;;;8.30;95.10;;;;;;5069641;28;20390;-70
2022/03/22 06:22:57;;;;;;;78.88;43.50;;;8.30;95.20;;;;;;5067078;28;20316;-69
2022/03/22 06:25:24;;;;;;;88.35;45.42;;;8.40;95.70;;;;;;5082618;28;20213;-70
2022/03/22 06:27:51;;;;;;;80.50;42.42;;;8.40;95.50;;;;;;5086356;28;20697;-69
2022/03/22 06:30:17;;;;;;;80.60;43.33;;;8.40;95.50;;;;;;5087563;28;20254;-67
2022/03/22 06:32:52;;;;;;;87.30;43.20;;;8.40;95.60;;;;;;5088416;28;20577;-68
2022/03/22 06:35:20;;;;;;;89.70;43.05;;;8.40;95.70;;;;;;5087647;28;20233;-68
2022/03/22 06:37:48;;;;;;;77.35;42.45;;;8.40;95.80;;;;;;5087639;28;20189;-72
2022/03/22 06:40:15;;;;;;;80.68;43.28;;;8.40;95.80;;;;;;5085599;28;20194;-70
2022/03/22 06:42:42;;;;;;;79.82;44.67;;;8.40;95.90;;;;;;5087621;28;20220;-68
2022/03/22 06:45:08;;;;;;;83.88;45.75;;;8.50;96.00;;;;;;5087484;28;20299;-70
2022/03/22 06:47:34;;;;;;;89.25;47.08;;;8.50;96.10;;;;;;5069438;28;20298;-68
2022/03/22 06:50:00;;;;;;;80.00;46.15;;;8.50;96.20;;;;;;5086655;28;20247;-70
2022/03/22 06:52:27;;;;;;;88.47;47.22;;;8.50;96.20;;;;;;5088380;28;20202;-71
2022/03/22 06:54:53;;;;;;;81.20;45.78;;;8.60;96.30;;;;;;5067687;28;20205;-69
2022/03/22 06:57:19;;;;;;;85.07;46.10;;;8.60;96.40;;;;;;5083851;28;20186;-68
2022/03/22 06:59:45;;;;;;;85.40;45.42;;;8.60;96.50;;;;;;5069858;28;20303;-68
2022/03/22 07:02:11;;;;;;;87.85;45.88;;;8.70;96.60;;;;;;5086244;28;20182;-69
2022/03/22 07:04:36;;;;;;;88.22;46.10;;;8.70;96.70;;;;;;5085706;28;20700;-70
2022/03/22 07:07:02;;;;;;;86.00;45.55;;;8.70;96.80;;;;;;5069093;28;20193;-68
2022/03/22 07:09:28;;;;;;;81.43;46.45;;;8.80;96.90;;;;;;5087771;28;20190;-67
2022/03/22 07:11:55;;;;;;;87.88;46.70;;;8.90;97.10;;;;;;5088049;28;20205;-68
2022/03/22 07:14:25;;;;;;;87.93;47.45;;;8.90;97.20;;;;;;5086650;28;20209;-68
2022/03/22 07:16:51;;;;;;;81.15;46.17;;;9.00;97.30;;;;;;5087115;28;20192;-69
2022/03/22 07:19:19;;;;;;;90.80;48.83;;;9.10;97.40;;;;;;5086872;28;20189;-70
2022/03/22 07:21:46;;;;;;;81.18;45.90;;;9.10;97.50;;;;;;5069183;28;20214;-69
2022/03/22 07:24:13;;;;;;;78.28;46.10;;;9.20;97.60;;;;;;5085996;28;20186;-71
2022/03/22 07:26:42;;;;;;;86.25;47.92;;;9.30;98.10;;;;;;5070408;28;20620;-69
2022/03/22 07:29:08;;;;;;;85.20;47.40;;;9.30;97.80;;;;;;5070591;28;20236;-74
2022/03/22 07:31:38;;;;;;;;;;;9.40;98.00;;;;;;5070523;28;20036;-71
2022/03/22 07:34:08;;;;;;;;;;;9.40;97.90;;;;;;5068477;28;19912;-71
2022/03/22 07:36:36;;;;;;;;;;;9.50;98.00;;;;;;5069794;28;19916;-71
2022/03/22 07:39:02;;;;;;;;;;;9.60;98.10;;;;;;5052572;28;19912;-70
2022/03/22 07:41:28;;;;;;;;;;;9.70;98.20;;;;;;5087637;28;19916;-72
2022/03/22 07:43:54;;;;;;;;;;;9.70;98.20;;;;;;5087662;28;19931;-71
2022/03/22 07:46:20;;;;;;;;;;;9.80;98.40;;;;;;5071105;28;19916;-69
2022/03/22 07:48:46;;;;;;;;;;;9.90;98.30;;;;;;5070822;28;21872;-70
2022/03/22 07:53:56;;;;;;;;;;;10.00;98.30;;;;;;5070735;28;19916;-72
2022/03/22 07:56:21;;;;;;;;;;;10.20;98.30;;;;;;5088529;28;19915;-71
2022/03/22 07:58:47;;;;;;;69.47;44.72;;;10.20;98.30;;;;;;5090202;28;20442;-74
2022/03/22 08:01:13;;;;;;;64.27;43.10;;;10.80;97.80;;;;;;5072528;28;20409;-71
2022/03/22 08:03:38;;;;;;;63.33;42.60;;;11.40;96.70;;;;;;5089863;28;20765;-72
2022/03/22 08:06:07;;;;;;;62.15;40.20;;;11.70;96.00;;;;;;5088106;28;20409;-71
2022/03/22 08:08:33;;;;;;;65.50;40.20;;;12.00;95.60;;;;;;5070233;28;20442;-72
2022/03/22 08:11:00;;;;;;;62.30;41.63;;;12.20;95.00;;;;;;5071153;28;20530;-72
2022/03/22 08:13:26;;;;;;;60.43;39.77;;;12.40;94.40;;;;;;5088715;28;20409;-71
2022/03/22 08:15:52;;;;;;;52.97;35.90;;;12.60;94.20;;;;;;5068150;28;20475;-70
2022/03/22 08:18:18;;;;;;;55.08;38.53;;;12.80;93.90;;;;;;5087681;28;20411;-71
2022/03/22 08:20:44;;;;;;;57.93;39.07;;;13.00;93.50;;;;;;5090106;28;20406;-69
2022/03/22 08:23:10;;;;;;;56.00;39.22;;;13.20;93.10;;;;;;5085478;28;20484;-70
2022/03/22 08:25:40;;;;;;;53.45;36.95;;;13.40;92.80;;;;;;5084043;28;20909;-67
2022/03/22 08:28:08;;;;;;;53.58;37.25;;;13.60;92.50;;;;;;5089797;28;20481;-70
2022/03/22 08:30:35;;;;;;;56.60;37.67;;;13.80;92.00;;;;;;5071443;28;20410;-69
2022/03/22 08:33:09;;;;;;;57.50;37.20;;;13.90;91.60;;;;;;5070841;28;20931;-68
2022/03/22 08:35:41;;;;;;;49.85;35.92;;;14.20;91.40;;;;;;5069155;28;20418;-70
2022/03/22 08:38:07;;;;;;;47.87;33.57;;;14.30;91.00;;;;;;5089552;28;20404;-69
2022/03/22 08:40:33;;;;;;;52.45;35.35;;;14.50;90.70;;;;;;5087353;28;20411;-70
2022/03/22 08:42:59;;;;;;;53.70;36.55;;;14.70;90.60;;;;;;5087661;28;20420;-70
2022/03/22 08:45:26;;;;;;;50.85;34.80;;;15.00;90.20;;;;;;5089644;28;20815;-69
2022/03/22 08:47:53;;;;;;;47.92;33.30;;;15.40;87.80;;;;;;5088123;28;20873;-69
2022/03/22 08:50:21;;;;;;;49.95;33.70;;;15.90;85.70;;;;;;5087782;28;20784;-72
2022/03/22 08:52:47;;;;;;;47.20;32.35;;;16.40;82.70;;;;;;5089443;28;20398;-70
2022/03/22 08:55:18;;;;;;;43.53;31.40;;;16.90;80.50;;;;;;5087976;28;20414;-70
2022/03/22 08:57:46;;;;;;;45.08;31.27;;;17.30;78.10;;;;;;5071072;28;20892;-69
2022/03/22 09:00:13;;;;;;;41.08;28.90;;;17.60;74.40;;;;;;5071230;28;20429;-70
2022/03/22 09:02:40;;;;;;;45.45;31.35;;;18.00;73.00;;;;;;5070274;28;20413;-69
2022/03/22 09:07:51;;;;;;;45.88;31.27;;;18.50;69.70;;;;;;5088155;28;20472;-71
2022/03/22 09:10:20;;;;;;;40.88;28.98;;;18.70;68.50;;;;;;5070948;28;20820;-70
2022/03/22 09:12:49;;;;;;;39.95;29.23;;;18.90;65.30;;;;;;5089356;28;21263;-70
2022/03/22 09:15:19;;;;;;;39.30;27.65;;;19.10;64.10;;;;;;5087624;28;20413;-70
2022/03/22 09:17:46;;;;;;;40.28;29.17;;;19.20;62.50;;;;;;5071234;28;20394;-69
2022/03/22 09:20:13;;;;;;;41.47;29.70;;;19.40;61.50;;;;;;5088850;28;20440;-70
2022/03/22 09:22:47;;;;;;;41.72;29.27;;;19.50;61.30;;;;;;5049428;28;20423;-67
2022/03/22 09:25:12;;;;;;;41.63;27.42;;;19.50;61.10;;;;;;5065597;28;20494;-70
2022/03/22 09:27:39;;;;;;;39.97;28.23;;;19.60;60.90;;;;;;5068636;28;20526;-70
2022/03/22 09:30:05;;;;;;;40.00;29.25;;;19.70;59.80;;;;;;5068364;28;20807;-71
2022/03/22 09:32:32;;;;;;;40.38;28.52;;;19.70;60.50;;;;;;5066490;28;20760;-71
2022/03/22 09:35:01;;;;;;;43.17;28.15;;;19.90;59.60;;;;;;5065297;28;20471;-70
2022/03/22 09:37:27;;;;;;;38.10;27.83;;;20.10;57.80;;;;;;5064914;28;20403;-68
2022/03/22 09:39:54;;;;;;;39.75;27.30;;;20.30;57.10;;;;;;5068699;28;20411;-68
2022/03/22 09:42:20;;;;;;;36.17;27.73;;;20.50;57.10;;;;;;5068740;28;20406;-69
2022/03/22 09:44:50;;;;;;;39.97;28.38;;;20.60;57.60;;;;;;5067268;28;20407;-69
2022/03/22 09:47:16;;;;;;;39.47;27.98;;;20.90;56.60;;;;;;5050843;28;20407;-68
2022/03/22 09:49:43;;;;;;;39.30;28.25;;;21.10;55.60;;;;;;5066633;28;20488;-68
2022/03/22 09:52:10;;;;;;;38.97;27.05;;;21.30;54.20;;;;;;5068024;28;20430;-69
2022/03/22 09:54:38;;;;;;;34.17;26.50;;;21.30;53.70;;;;;;5066412;28;20494;-69
2022/03/22 09:57:05;;;;;;;33.47;25.67;;;21.40;55.00;;;;;;5068552;28;20509;-68
2022/03/22 09:59:34;;;;;;;36.38;26.05;;;21.50;54.10;;;;;;5067724;28;20486;-68
2022/03/22 10:02:01;;;;;;;39.47;27.23;;;21.60;53.40;;;;;;5067153;28;20399;-69
2022/03/22 10:04:39;;;;;;;39.27;26.40;;;21.70;54.10;;;;;;5065327;28;20449;-68
2022/03/22 10:07:06;;;;;;;35.85;25.65;;;21.70;53.00;;;;;;5066520;28;20429;-68
2022/03/22 10:09:36;;;;;;;35.47;26.55;;;21.70;52.30;;;;;;5068521;28;20482;-70
2022/03/22 10:12:03;;;;;;;37.40;25.60;;;21.70;52.40;;;;;;5066530;28;20814;-68
2022/03/22 10:14:38;;;;;;;34.65;26.50;;;21.70;53.10;;;;;;5066844;28;20420;-67
2022/03/22 10:17:17;;;;;;;32.88;25.20;;;21.80;53.50;;;;;;5065573;28;20439;-67
2022/03/22 10:19:49;;;;;;;34.00;25.30;;;21.90;52.50;;;;;;5067629;28;20390;-69
2022/03/22 10:22:16;;;;;;;40.70;25.52;;;21.90;52.30;;;;;;5069920;28;20428;-69
2022/03/22 10:24:55;;;;;;;39.17;24.95;;;21.90;51.80;;;;;;5087025;28;20422;-67
2022/03/22 10:27:32;;;;;;;32.92;24.40;;;21.90;52.90;;;;;;5066858;28;20860;-68
2022/03/22 10:30:05;;;;;;;36.75;25.23;;;21.90;52.30;;;;;;5088085;28;20745;-69
2022/03/22 10:32:40;;;;;;;35.85;25.00;;;22.00;53.90;;;;;;5051131;28;20459;-67
2022/03/22 10:35:14;;;;;;;33.45;22.95;;;22.00;54.00;;;;;;5085764;28;20474;-67
2022/03/22 10:37:45;;;;;;;33.70;22.70;;;22.20;51.60;;;;;;5069322;28;20492;-67
2022/03/22 10:40:22;;;;;;;33.20;22.05;;;22.40;51.80;;;;;;5087983;28;20458;-69
2022/03/22 10:42:53;;;;;;;29.88;21.38;;;22.90;51.70;;;;;;5083252;28;20481;-68
2022/03/22 10:45:19;;;;;;;32.53;22.02;;;23.40;51.30;;;;;;5085748;28;20501;-67
2022/03/22 10:47:46;;;;;;;32.70;22.20;;;23.90;48.70;;;;;;5084156;28;20509;-71
2022/03/22 10:50:12;;;;;;;30.77;21.93;;;24.60;45.10;;;;;;5088299;28;20416;-70
2022/03/22 10:52:55;;;;;;;34.60;21.83;;;25.20;44.10;;;;;;5068653;28;20921;-70
2022/03/22 10:55:23;;;;;;;27.50;19.77;;;26.00;42.20;;;;;;5068922;28;20430;-69
2022/03/22 10:57:58;;;;;;;32.33;21.10;;;26.80;41.70;;;;;;5085122;28;20413;-68
2022/03/22 11:00:24;;;;;;;;;;;27.40;38.90;;;;;;5087580;28;20397;-68
2022/03/22 11:02:52;;;;;;;;;;;28.00;38.30;;;;;;5086989;28;19920;-69
2022/03/22 11:05:20;;;;;;;;;;;28.50;36.70;;;;;;5070205;28;19935;-69
2022/03/22 11:07:47;;;;;;;;;;;28.80;35.80;;;;;;5087503;28;19916;-69
2022/03/22 11:10:13;;;;;;;;;;;29.20;36.30;;;;;;5089805;28;20050;-70
2022/03/22 11:12:39;;;;;;;;;;;29.70;36.20;;;;;;5087730;28;19915;-69
2022/03/22 11:15:05;;;;;;;;;;;30.00;35.10;;;;;;5085283;28;19920;-73
2022/03/22 11:17:34;;;;;;;;;;;30.50;33.20;;;;;;5085680;28;19915;-72
2022/03/22 11:20:01;;;;;;;;;;;30.80;32.90;;;;;;5084761;28;19972;-68
2022/03/22 11:22:28;;;;;;;;;;;31.10;31.30;;;;;;5086876;28;19920;-70
2022/03/22 11:25:04;;;;;;;;;;;31.30;31.50;;;;;;5090161;28;20361;-68
2022/03/22 11:27:30;;;;;;;;;;;31.60;31.90;;;;;;5074294;28;19908;-67
2022/03/22 11:29:56;;;;;;;;;;;32.00;31.50;;;;;;5092528;28;20299;-66
2022/03/22 11:35:12;;;;;;;;;;;32.80;30.70;;;;;;5071402;28;19916;-71
2022/03/22 11:37:37;;;;;;;;;;;33.20;29.70;;;;;;5087881;28;19919;-69
2022/03/22 11:42:50;;;;;;;;;;;33.20;29.30;;;;;;5088940;28;19915;-70
2022/03/22 11:45:16;;;;;;;;;;;33.10;28.50;;;;;;5091518;28;19916;-70
2022/03/22 11:47:42;;;;;;;;;;;33.00;29.70;;;;;;5091211;28;19915;-70
2022/03/22 11:50:17;;;;;;;;;;;32.90;29.40;;;;;;5090075;28;19994;-70
2022/03/22 11:52:43;;;;;;;;;;;32.90;30.00;;;;;;5090959;28;19911;-71
2022/03/22 11:55:10;;;;;;;;;;;32.90;30.10;;;;;;5074591;28;19912;-71
2022/03/22 11:57:40;;;;;;;;;;;32.80;28.50;;;;;;5072904;28;19969;-68
2022/03/22 12:00:06;;;;;;;;;;;32.80;28.80;;;;;;5057996;28;19908;-70
2022/03/22 12:02:32;;;;;;;;;;;32.70;28.80;;;;;;5072324;28;19908;-70
2022/03/22 12:04:57;;;;;;;;;;;32.50;28.70;;;;;;5056511;28;19912;-69
2022/03/22 12:07:23;;;;;;;;;;;32.50;29.90;;;;;;5073330;28;20281;-69
2022/03/22 12:09:48;;;;;;;;;;;32.50;29.80;;;;;;5091158;28;19908;-70
2022/03/22 12:12:14;;;;;;;;;;;32.50;29.00;;;;;;5084997;28;19961;-70
2022/03/22 12:14:41;;;;;;;;;;;32.50;29.70;;;;;;5073126;28;19912;-69
2022/03/22 12:17:06;;;;;;;;;;;32.50;29.10;;;;;;5089147;28;20276;-69
2022/03/22 12:19:34;;;;;;;;;;;32.40;29.30;;;;;;5072264;28;19938;-70
2022/03/22 12:22:01;;;;;;;;;;;32.30;29.40;;;;;;5087326;28;19911;-70
2022/03/22 12:24:30;;;;;;;;;;;32.00;29.30;;;;;;5092256;28;19908;-70
2022/03/22 12:26:56;;;;;;;;;;;31.70;28.40;;;;;;5089835;28;19916;-71
2022/03/22 12:29:22;;;;;;;;;;;31.40;29.10;;;;;;5092458;28;19904;-71
2022/03/22 12:31:52;;;;;;;;;;;31.10;29.80;;;;;;5072973;28;19941;-70
2022/03/22 12:34:18;;;;;;;;;;;30.80;30.80;;;;;;5091942;28;19912;-71
2022/03/22 12:36:44;;;;;;;;;;;30.00;31.90;;;;;;5069732;28;19912;-71
2022/03/22 12:39:10;;;;;;;25.27;14.67;;;29.30;32.70;;;;;;5089977;28;20432;-71
2022/03/22 12:41:37;;;;;;;27.73;16.17;;;29.80;30.70;;;;;;5070180;28;20414;-70
2022/03/22 12:44:04;;;;;;;22.20;15.02;;;29.80;30.90;;;;;;5087339;28;20413;-70
2022/03/22 12:46:29;;;;;;;22.33;14.25;;;29.70;32.00;;;;;;5069074;28;20489;-70
2022/03/22 12:48:55;;;;;;;23.50;15.15;;;29.00;33.00;;;;;;5072130;28;20193;-70
2022/03/22 12:51:25;;;;;;;23.30;14.55;;;28.50;33.70;;;;;;5071354;28;20546;-70
2022/03/22 12:53:51;;;;;;;22.30;14.77;;;28.20;33.80;;;;;;5054590;28;20223;-70
2022/03/22 12:56:20;;;;;;;22.08;13.80;;;27.80;34.90;;;;;;5089856;28;20185;-70
2022/03/22 12:58:46;;;;;;;24.40;13.85;;;27.60;34.50;;;;;;5090987;28;20189;-71
2022/03/22 13:01:12;;;;;;;22.00;12.95;;;27.40;35.00;;;;;;5086900;28;20197;-71
2022/03/22 13:03:38;;;;;;;22.73;13.55;;;27.30;35.80;;;;;;5090687;28;20652;-71
2022/03/22 13:06:07;;;;;;;16.80;12.25;;;27.30;35.70;;;;;;5072852;28;20243;-72
2022/03/22 13:11:32;;;;;;;27.45;14.45;;;27.20;35.50;;;;;;5071102;28;20227;-72
2022/03/22 13:16:53;;;;;;;23.45;14.35;;;27.10;34.90;;;;;;5069573;28;20644;-70
2022/03/22 13:19:19;;;;;;;;;;;27.00;35.10;;;;;;5091338;28;20035;-71
2022/03/22 13:21:44;;;;;;;;;;;26.80;35.40;;;;;;5088915;28;19916;-71